sensor_id;sensor_type;location;lat;lon;timestamp;pressure;altitude;pressure_sealevel;temperature;humidity
20009;BME280;10165;42.662;23.260;2023-04-28T00:01:27;94340.06;;;9.37;41.49
20009;BME280;10165;42.662;23.260;2023-04-28T00:03:53;94332.97;;;9.53;42.06
20009;BME280;10165;42.662;23.260;2023-04-28T00:06:22;94333.63;;;9.38;41.48
20009;BME280;10165;42.662;23.260;2023-04-28T00:08:49;94338.72;;;9.43;42.29
20009;BME280;10165;42.662;23.260;2023-04-28T00:11:16;94339.41;;;9.40;42.18
20009;BME280;10165;42.662;23.260;2023-04-28T00:13:42;94332.97;;;9.53;41.39
20009;BME280;10165;42.662;23.260;2023-04-28T00:16:09;94331.00;;;9.98;40.72
20009;BME280;10165;42.662;23.260;2023-04-28T00:18:36;94336.31;;;9.62;41.33
20009;BME280;10165;42.662;23.260;2023-04-28T00:21:03;94344.09;;;9.55;41.59
20009;BME280;10165;42.662;23.260;2023-04-28T00:23:29;94333.44;;;9.79;41.42
20009;BME280;10165;42.662;23.260;2023-04-28T00:25:56;94337.78;;;9.84;41.35
20009;BME280;10165;42.662;23.260;2023-04-28T00:28:23;94336.91;;;10.04;40.80
20009;BME280;10165;42.662;23.260;2023-04-28T00:30:52;94338.66;;;10.36;40.05
20009;BME280;10165;42.662;23.260;2023-04-28T00:33:19;94335.53;;;9.74;40.75
20009;BME280;10165;42.662;23.260;2023-04-28T00:35:46;94336.78;;;10.13;40.34
20009;BME280;10165;42.662;23.260;2023-04-28T00:38:12;94342.78;;;10.09;40.35
20009;BME280;10165;42.662;23.260;2023-04-28T00:40:39;94353.63;;;9.44;41.53
20009;BME280;10165;42.662;23.260;2023-04-28T00:43:06;94349.19;;;9.48;41.41
20009;BME280;10165;42.662;23.260;2023-04-28T00:45:33;94355.34;;;9.73;41.10
20009;BME280;10165;42.662;23.260;2023-04-28T00:48:00;94354.44;;;9.56;41.21
20009;BME280;10165;42.662;23.260;2023-04-28T00:50:27;94359.69;;;9.65;41.36
20009;BME280;10165;42.662;23.260;2023-04-28T00:52:54;94348.13;;;9.61;41.45
20009;BME280;10165;42.662;23.260;2023-04-28T00:55:21;94351.91;;;9.84;40.94
20009;BME280;10165;42.662;23.260;2023-04-28T00:57:50;94354.72;;;9.31;41.87
20009;BME280;10165;42.662;23.260;2023-04-28T01:00:17;94362.31;;;9.08;42.08
20009;BME280;10165;42.662;23.260;2023-04-28T01:02:43;94360.22;;;9.13;42.14
20009;BME280;10165;42.662;23.260;2023-04-28T01:05:10;94366.22;;;8.90;42.11
20009;BME280;10165;42.662;23.260;2023-04-28T01:07:39;94359.38;;;9.34;41.79
20009;BME280;10165;42.662;23.260;2023-04-28T01:10:06;94364.03;;;9.70;41.04
20009;BME280;10165;42.662;23.260;2023-04-28T01:12:33;94363.50;;;9.31;41.21
20009;BME280;10165;42.662;23.260;2023-04-28T01:14:59;94370.75;;;9.55;41.52
20009;BME280;10165;42.662;23.260;2023-04-28T01:17:26;94360.22;;;9.83;40.87
20009;BME280;10165;42.662;23.260;2023-04-28T01:19:53;94357.13;;;9.69;40.93
20009;BME280;10165;42.662;23.260;2023-04-28T01:22:21;94357.13;;;9.81;40.59
20009;BME280;10165;42.662;23.260;2023-04-28T01:24:47;94366.53;;;9.66;40.41
20009;BME280;10165;42.662;23.260;2023-04-28T01:27:14;94367.69;;;9.77;40.12
20009;BME280;10165;42.662;23.260;2023-04-28T01:29:41;94366.78;;;9.61;40.62
20009;BME280;10165;42.662;23.260;2023-04-28T01:32:08;94366.25;;;9.80;40.65
20009;BME280;10165;42.662;23.260;2023-04-28T01:34:35;94362.78;;;9.79;40.36
20009;BME280;10165;42.662;23.260;2023-04-28T01:37:02;94362.44;;;9.93;39.60
20009;BME280;10165;42.662;23.260;2023-04-28T01:39:28;94359.44;;;9.13;40.57
20009;BME280;10165;42.662;23.260;2023-04-28T01:41:55;94368.34;;;9.74;40.02
20009;BME280;10165;42.662;23.260;2023-04-28T01:44:21;94361.03;;;10.07;39.58
20009;BME280;10165;42.662;23.260;2023-04-28T01:46:48;94366.25;;;10.40;38.83
20009;BME280;10165;42.662;23.260;2023-04-28T01:49:15;94367.38;;;10.03;39.40
20009;BME280;10165;42.662;23.260;2023-04-28T01:51:41;94369.78;;;9.72;40.01
20009;BME280;10165;42.662;23.260;2023-04-28T01:54:08;94368.16;;;9.34;40.84
20009;BME280;10165;42.662;23.260;2023-04-28T01:56:35;94364.91;;;9.62;40.75
20009;BME280;10165;42.662;23.260;2023-04-28T01:59:02;94362.69;;;9.76;40.94
20009;BME280;10165;42.662;23.260;2023-04-28T02:01:29;94361.81;;;9.27;41.37
20009;BME280;10165;42.662;23.260;2023-04-28T02:03:56;94365.19;;;9.48;41.13
20009;BME280;10165;42.662;23.260;2023-04-28T02:06:23;94366.31;;;9.59;40.93
20009;BME280;10165;42.662;23.260;2023-04-28T02:08:49;94360.13;;;9.22;41.38
20009;BME280;10165;42.662;23.260;2023-04-28T02:11:16;94373.41;;;8.77;42.73
20009;BME280;10165;42.662;23.260;2023-04-28T02:13:43;94380.38;;;9.02;41.89
20009;BME280;10165;42.662;23.260;2023-04-28T02:16:09;94375.16;;;9.06;41.54
20009;BME280;10165;42.662;23.260;2023-04-28T02:18:36;94377.06;;;9.38;41.25
20009;BME280;10165;42.662;23.260;2023-04-28T02:21:11;94376.78;;;9.64;40.80
20009;BME280;10165;42.662;23.260;2023-04-28T02:23:38;94374.44;;;9.50;41.08
20009;BME280;10165;42.662;23.260;2023-04-28T02:26:05;94374.16;;;8.98;41.97
20009;BME280;10165;42.662;23.260;2023-04-28T02:28:32;94384.50;;;8.79;43.55
20009;BME280;10165;42.662;23.260;2023-04-28T02:31:06;94390.06;;;8.15;44.09
20009;BME280;10165;42.662;23.260;2023-04-28T02:33:34;94385.88;;;8.64;43.80
20009;BME280;10165;42.662;23.260;2023-04-28T02:36:02;94389.97;;;8.62;43.38
20009;BME280;10165;42.662;23.260;2023-04-28T02:38:29;94394.22;;;8.75;43.15
20009;BME280;10165;42.662;23.260;2023-04-28T02:41:03;94390.66;;;8.71;42.84
20009;BME280;10165;42.662;23.260;2023-04-28T02:43:31;94393.19;;;8.88;43.08
20009;BME280;10165;42.662;23.260;2023-04-28T02:45:58;94396.84;;;9.04;42.50
20009;BME280;10165;42.662;23.260;2023-04-28T02:48:25;94390.59;;;9.33;42.12
20009;BME280;10165;42.662;23.260;2023-04-28T02:50:52;94397.03;;;9.32;41.84
20009;BME280;10165;42.662;23.260;2023-04-28T02:53:19;94399.03;;;8.82;42.06
20009;BME280;10165;42.662;23.260;2023-04-28T02:55:46;94395.28;;;8.83;42.67
20009;BME280;10165;42.662;23.260;2023-04-28T02:58:13;94405.88;;;8.91;42.45
20009;BME280;10165;42.662;23.260;2023-04-28T03:00:40;94401.50;;;9.07;41.52
20009;BME280;10165;42.662;23.260;2023-04-28T03:03:06;94406.59;;;9.33;41.31
20009;BME280;10165;42.662;23.260;2023-04-28T03:05:33;94419.00;;;8.96;41.94
20009;BME280;10165;42.662;23.260;2023-04-28T03:08:00;94410.88;;;9.26;41.42
20009;BME280;10165;42.662;23.260;2023-04-28T03:10:27;94410.84;;;9.13;41.31
20009;BME280;10165;42.662;23.260;2023-04-28T03:12:54;94412.81;;;8.84;42.11
20009;BME280;10165;42.662;23.260;2023-04-28T03:15:20;94413.19;;;8.53;42.52
20009;BME280;10165;42.662;23.260;2023-04-28T03:17:47;94411.13;;;8.58;42.65
20009;BME280;10165;42.662;23.260;2023-04-28T03:20:14;94419.50;;;8.69;41.73
20009;BME280;10165;42.662;23.260;2023-04-28T03:22:40;94422.09;;;8.57;42.30
20009;BME280;10165;42.662;23.260;2023-04-28T03:25:07;94415.88;;;8.15;44.03
20009;BME280;10165;42.662;23.260;2023-04-28T03:27:34;94433.41;;;8.54;42.44
20009;BME280;10165;42.662;23.260;2023-04-28T03:30:01;94436.41;;;8.73;42.40
20009;BME280;10165;42.662;23.260;2023-04-28T03:32:27;94432.28;;;8.17;43.21
20009;BME280;10165;42.662;23.260;2023-04-28T03:34:54;94445.44;;;8.31;43.01
20009;BME280;10165;42.662;23.260;2023-04-28T03:37:21;94442.75;;;8.60;42.20
20009;BME280;10165;42.662;23.260;2023-04-28T03:39:48;94446.75;;;8.07;43.22
20009;BME280;10165;42.662;23.260;2023-04-28T03:42:14;94443.28;;;8.15;43.33
20009;BME280;10165;42.662;23.260;2023-04-28T03:44:41;94450.81;;;8.72;42.17
20009;BME280;10165;42.662;23.260;2023-04-28T03:47:08;94456.19;;;7.96;43.33
20009;BME280;10165;42.662;23.260;2023-04-28T03:49:34;94457.06;;;7.62;43.98
20009;BME280;10165;42.662;23.260;2023-04-28T03:52:01;94451.06;;;7.83;44.32
20009;BME280;10165;42.662;23.260;2023-04-28T03:54:29;94453.78;;;7.57;43.81
20009;BME280;10165;42.662;23.260;2023-04-28T03:56:56;94464.03;;;7.20;44.71
20009;BME280;10165;42.662;23.260;2023-04-28T03:59:23;94459.16;;;7.95;43.94
20009;BME280;10165;42.662;23.260;2023-04-28T04:01:50;94457.50;;;8.20;43.03
20009;BME280;10165;42.662;23.260;2023-04-28T04:04:16;94473.47;;;8.20;42.62
20009;BME280;10165;42.662;23.260;2023-04-28T04:06:44;94464.03;;;7.84;43.31
20009;BME280;10165;42.662;23.260;2023-04-28T04:09:10;94472.44;;;7.95;42.90
20009;BME280;10165;42.662;23.260;2023-04-28T04:11:37;94469.81;;;8.33;42.55
20009;BME280;10165;42.662;23.260;2023-04-28T04:14:04;94474.78;;;8.72;41.47
20009;BME280;10165;42.662;23.260;2023-04-28T04:16:31;94479.53;;;8.87;41.96
20009;BME280;10165;42.662;23.260;2023-04-28T04:18:58;94476.25;;;8.61;41.45
20009;BME280;10165;42.662;23.260;2023-04-28T04:21:24;94478.88;;;7.94;42.66
20009;BME280;10165;42.662;23.260;2023-04-28T04:23:53;94485.38;;;8.13;43.03
20009;BME280;10165;42.662;23.260;2023-04-28T04:26:19;94487.22;;;8.22;42.74
20009;BME280;10165;42.662;23.260;2023-04-28T04:28:47;94493.41;;;8.72;42.23
20009;BME280;10165;42.662;23.260;2023-04-28T04:31:13;94492.28;;;8.06;42.99
20009;BME280;10165;42.662;23.260;2023-04-28T04:33:40;94491.19;;;8.07;43.82
20009;BME280;10165;42.662;23.260;2023-04-28T04:36:07;94488.81;;;8.52;42.54
20009;BME280;10165;42.662;23.260;2023-04-28T04:38:34;94490.22;;;8.58;43.96
20009;BME280;10165;42.662;23.260;2023-04-28T04:41:01;94484.88;;;8.29;43.16
20009;BME280;10165;42.662;23.260;2023-04-28T04:43:27;94491.13;;;8.62;43.17
20009;BME280;10165;42.662;23.260;2023-04-28T04:45:54;94496.91;;;8.64;42.32
20009;BME280;10165;42.662;23.260;2023-04-28T04:48:20;94495.13;;;8.97;42.02
20009;BME280;10165;42.662;23.260;2023-04-28T04:50:48;94501.53;;;8.76;42.06
20009;BME280;10165;42.662;23.260;2023-04-28T04:53:14;94507.56;;;8.64;42.61
20009;BME280;10165;42.662;23.260;2023-04-28T04:55:42;94502.00;;;8.48;43.08
20009;BME280;10165;42.662;23.260;2023-04-28T04:58:08;94509.50;;;8.08;43.71
20009;BME280;10165;42.662;23.260;2023-04-28T05:00:35;94519.75;;;8.36;43.51
20009;BME280;10165;42.662;23.260;2023-04-28T05:03:04;94519.66;;;8.06;44.15
20009;BME280;10165;42.662;23.260;2023-04-28T05:05:31;94526.84;;;8.14;44.42
20009;BME280;10165;42.662;23.260;2023-04-28T05:07:58;94527.22;;;7.87;44.39
20009;BME280;10165;42.662;23.260;2023-04-28T05:10:25;94522.50;;;8.01;44.00
20009;BME280;10165;42.662;23.260;2023-04-28T05:12:52;94524.22;;;8.82;42.66
20009;BME280;10165;42.662;23.260;2023-04-28T05:15:19;94529.09;;;8.50;43.30
20009;BME280;10165;42.662;23.260;2023-04-28T05:17:46;94522.47;;;8.56;43.49
20009;BME280;10165;42.662;23.260;2023-04-28T05:20:13;94528.06;;;8.63;43.38
20009;BME280;10165;42.662;23.260;2023-04-28T05:22:40;94531.09;;;8.83;43.20
20009;BME280;10165;42.662;23.260;2023-04-28T05:25:07;94527.88;;;8.77;43.05
20009;BME280;10165;42.662;23.260;2023-04-28T05:27:34;94531.47;;;9.23;42.45
20009;BME280;10165;42.662;23.260;2023-04-28T05:30:06;94529.88;;;9.01;42.54
20009;BME280;10165;42.662;23.260;2023-04-28T05:32:34;94522.84;;;8.46;42.84
20009;BME280;10165;42.662;23.260;2023-04-28T05:35:01;94536.00;;;8.81;43.07
20009;BME280;10165;42.662;23.260;2023-04-28T05:37:28;94519.31;;;8.92;42.86
20009;BME280;10165;42.662;23.260;2023-04-28T05:39:54;94530.94;;;8.58;42.79
20009;BME280;10165;42.662;23.260;2023-04-28T05:42:21;94528.66;;;8.40;42.89
20009;BME280;10165;42.662;23.260;2023-04-28T05:44:48;94526.88;;;8.06;43.89
20009;BME280;10165;42.662;23.260;2023-04-28T05:47:14;94528.16;;;7.91;43.50
20009;BME280;10165;42.662;23.260;2023-04-28T05:49:41;94527.94;;;8.13;43.77
20009;BME280;10165;42.662;23.260;2023-04-28T05:52:08;94526.69;;;8.11;43.28
20009;BME280;10165;42.662;23.260;2023-04-28T05:54:34;94530.38;;;9.03;42.49
20009;BME280;10165;42.662;23.260;2023-04-28T05:57:01;94532.44;;;8.22;42.32
20009;BME280;10165;42.662;23.260;2023-04-28T05:59:28;94527.72;;;8.36;42.79
20009;BME280;10165;42.662;23.260;2023-04-28T06:01:56;94532.00;;;8.66;42.77
20009;BME280;10165;42.662;23.260;2023-04-28T06:04:22;94535.31;;;9.13;41.54
20009;BME280;10165;42.662;23.260;2023-04-28T06:06:51;94530.09;;;9.17;41.28
20009;BME280;10165;42.662;23.260;2023-04-28T06:09:18;94528.97;;;9.59;40.71
20009;BME280;10165;42.662;23.260;2023-04-28T06:11:44;94535.03;;;9.06;41.17
20009;BME280;10165;42.662;23.260;2023-04-28T06:14:11;94534.06;;;9.10;41.24
20009;BME280;10165;42.662;23.260;2023-04-28T06:16:38;94531.22;;;9.16;40.83
20009;BME280;10165;42.662;23.260;2023-04-28T06:19:04;94528.94;;;9.26;40.13
20009;BME280;10165;42.662;23.260;2023-04-28T06:21:31;94536.53;;;9.36;40.47
20009;BME280;10165;42.662;23.260;2023-04-28T06:23:58;94529.19;;;9.33;39.63
20009;BME280;10165;42.662;23.260;2023-04-28T06:26:26;94536.34;;;9.41;40.60
20009;BME280;10165;42.662;23.260;2023-04-28T06:28:52;94529.00;;;9.18;41.59
20009;BME280;10165;42.662;23.260;2023-04-28T06:31:19;94529.88;;;9.63;40.99
20009;BME280;10165;42.662;23.260;2023-04-28T06:33:46;94531.59;;;9.68;40.73
20009;BME280;10165;42.662;23.260;2023-04-28T06:36:13;94526.59;;;9.45;40.14
20009;BME280;10165;42.662;23.260;2023-04-28T06:38:43;94528.16;;;10.12;40.22
20009;BME280;10165;42.662;23.260;2023-04-28T06:41:10;94517.34;;;10.78;38.88
20009;BME280;10165;42.662;23.260;2023-04-28T06:43:37;94526.59;;;10.56;38.43
20009;BME280;10165;42.662;23.260;2023-04-28T06:46:04;94521.56;;;10.54;39.33
20009;BME280;10165;42.662;23.260;2023-04-28T06:48:30;94527.50;;;9.49;39.70
20009;BME280;10165;42.662;23.260;2023-04-28T06:50:57;94520.91;;;9.68;39.31
20009;BME280;10165;42.662;23.260;2023-04-28T06:53:24;94520.66;;;9.93;40.08
20009;BME280;10165;42.662;23.260;2023-04-28T06:55:51;94525.03;;;10.10;40.21
20009;BME280;10165;42.662;23.260;2023-04-28T06:58:18;94514.97;;;10.28;40.16
20009;BME280;10165;42.662;23.260;2023-04-28T07:00:46;94514.03;;;10.69;39.55
20009;BME280;10165;42.662;23.260;2023-04-28T07:03:13;94514.91;;;10.48;39.36
20009;BME280;10165;42.662;23.260;2023-04-28T07:05:39;94517.00;;;10.67;38.69
20009;BME280;10165;42.662;23.260;2023-04-28T07:08:06;94516.19;;;10.18;39.44
20009;BME280;10165;42.662;23.260;2023-04-28T07:10:33;94514.09;;;10.96;38.19
20009;BME280;10165;42.662;23.260;2023-04-28T07:12:59;94523.78;;;10.40;36.91
20009;BME280;10165;42.662;23.260;2023-04-28T07:15:26;94520.50;;;10.11;37.49
20009;BME280;10165;42.662;23.260;2023-04-28T07:17:53;94516.34;;;10.46;36.78
20009;BME280;10165;42.662;23.260;2023-04-28T07:20:20;94509.53;;;10.97;35.87
20009;BME280;10165;42.662;23.260;2023-04-28T07:22:46;94509.31;;;10.78;35.91
20009;BME280;10165;42.662;23.260;2023-04-28T07:25:13;94514.19;;;10.27;37.62
20009;BME280;10165;42.662;23.260;2023-04-28T07:27:40;94516.66;;;10.32;37.51
20009;BME280;10165;42.662;23.260;2023-04-28T07:30:07;94510.75;;;10.39;37.56
20009;BME280;10165;42.662;23.260;2023-04-28T07:32:52;94506.00;;;10.81;36.77
20009;BME280;10165;42.662;23.260;2023-04-28T07:35:19;94503.47;;;11.24;36.92
20009;BME280;10165;42.662;23.260;2023-04-28T07:37:45;94505.63;;;11.19;36.75
20009;BME280;10165;42.662;23.260;2023-04-28T07:40:12;94525.03;;;10.55;37.65
20009;BME280;10165;42.662;23.260;2023-04-28T07:42:39;94507.00;;;10.88;37.61
20009;BME280;10165;42.662;23.260;2023-04-28T07:45:06;94503.06;;;11.10;36.40
20009;BME280;10165;42.662;23.260;2023-04-28T07:47:33;94510.34;;;10.61;36.37
20009;BME280;10165;42.662;23.260;2023-04-28T07:50:01;94513.56;;;10.54;36.69
20009;BME280;10165;42.662;23.260;2023-04-28T07:52:31;94497.63;;;10.94;36.03
20009;BME280;10165;42.662;23.260;2023-04-28T07:54:58;94493.84;;;11.35;36.59
20009;BME280;10165;42.662;23.260;2023-04-28T07:57:25;94500.19;;;11.43;35.24
20009;BME280;10165;42.662;23.260;2023-04-28T07:59:52;94491.88;;;11.72;34.76
20009;BME280;10165;42.662;23.260;2023-04-28T08:02:18;94503.28;;;11.85;34.35
20009;BME280;10165;42.662;23.260;2023-04-28T08:04:48;94502.03;;;11.27;35.46
20009;BME280;10165;42.662;23.260;2023-04-28T08:07:15;94494.22;;;11.89;35.21
20009;BME280;10165;42.662;23.260;2023-04-28T08:09:42;94490.13;;;12.39;33.87
20009;BME280;10165;42.662;23.260;2023-04-28T08:12:13;94497.56;;;12.30;33.62
20009;BME280;10165;42.662;23.260;2023-04-28T08:14:40;94495.44;;;11.92;34.58
20009;BME280;10165;42.662;23.260;2023-04-28T08:17:09;94495.50;;;11.40;35.06
20009;BME280;10165;42.662;23.260;2023-04-28T08:19:37;94507.84;;;11.57;35.23
20009;BME280;10165;42.662;23.260;2023-04-28T08:22:03;94493.75;;;11.72;35.02
20009;BME280;10165;42.662;23.260;2023-04-28T08:24:32;94495.03;;;12.06;33.82
20009;BME280;10165;42.662;23.260;2023-04-28T08:27:02;94491.47;;;11.86;34.14
20009;BME280;10165;42.662;23.260;2023-04-28T08:29:30;94500.91;;;11.95;34.79
20009;BME280;10165;42.662;23.260;2023-04-28T08:31:57;94489.72;;;12.37;34.42
20009;BME280;10165;42.662;23.260;2023-04-28T08:34:25;94494.69;;;11.91;33.91
20009;BME280;10165;42.662;23.260;2023-04-28T08:36:52;94486.59;;;11.76;34.72
20009;BME280;10165;42.662;23.260;2023-04-28T08:39:22;94496.97;;;11.65;34.83
20009;BME280;10165;42.662;23.260;2023-04-28T08:41:52;94498.09;;;11.76;35.34
20009;BME280;10165;42.662;23.260;2023-04-28T08:44:19;94479.28;;;11.88;34.24
20009;BME280;10165;42.662;23.260;2023-04-28T08:46:46;94485.22;;;12.57;34.35
20009;BME280;10165;42.662;23.260;2023-04-28T08:49:17;94477.94;;;12.10;33.97
20009;BME280;10165;42.662;23.260;2023-04-28T08:51:49;94477.84;;;12.69;34.70
20009;BME280;10165;42.662;23.260;2023-04-28T08:54:17;94478.97;;;12.84;32.82
20009;BME280;10165;42.662;23.260;2023-04-28T08:56:53;94470.75;;;12.61;33.03
20009;BME280;10165;42.662;23.260;2023-04-28T08:59:19;94469.72;;;12.50;33.25
20009;BME280;10165;42.662;23.260;2023-04-28T09:01:51;94465.06;;;12.31;33.29
20009;BME280;10165;42.662;23.260;2023-04-28T09:04:18;94484.31;;;12.06;34.83
20009;BME280;10165;42.662;23.260;2023-04-28T09:06:46;94473.69;;;11.66;34.90
20009;BME280;10165;42.662;23.260;2023-04-28T09:09:30;94478.44;;;12.16;34.65
20009;BME280;10165;42.662;23.260;2023-04-28T09:12:02;94467.50;;;11.77;34.26
20009;BME280;10165;42.662;23.260;2023-04-28T09:14:31;94461.91;;;11.82;34.30
20009;BME280;10165;42.662;23.260;2023-04-28T09:16:59;94464.91;;;12.24;33.59
20009;BME280;10165;42.662;23.260;2023-04-28T09:19:33;94450.47;;;12.44;33.81
20009;BME280;10165;42.662;23.260;2023-04-28T09:22:02;94453.78;;;12.38;34.34
20009;BME280;10165;42.662;23.260;2023-04-28T09:24:43;94453.22;;;12.64;33.63
20009;BME280;10165;42.662;23.260;2023-04-28T09:27:10;94451.75;;;13.01;33.56
20009;BME280;10165;42.662;23.260;2023-04-28T09:29:38;94443.56;;;12.94;32.64
20009;BME280;10165;42.662;23.260;2023-04-28T09:32:15;94443.78;;;13.05;32.67
20009;BME280;10165;42.662;23.260;2023-04-28T09:37:21;94448.72;;;13.18;32.97
20009;BME280;10165;42.662;23.260;2023-04-28T09:39:53;94442.56;;;13.18;32.20
20009;BME280;10165;42.662;23.260;2023-04-28T09:42:41;94438.50;;;12.58;31.60
20009;BME280;10165;42.662;23.260;2023-04-28T09:45:09;94428.38;;;13.17;33.95
20009;BME280;10165;42.662;23.260;2023-04-28T09:47:39;94433.06;;;13.05;33.25
20009;BME280;10165;42.662;23.260;2023-04-28T09:50:08;94427.09;;;13.50;33.11
20009;BME280;10165;42.662;23.260;2023-04-28T09:52:37;94431.75;;;13.14;32.54
20009;BME280;10165;42.662;23.260;2023-04-28T09:55:05;94422.16;;;13.52;32.69
20009;BME280;10165;42.662;23.260;2023-04-28T09:57:35;94438.59;;;12.61;32.84
20009;BME280;10165;42.662;23.260;2023-04-28T10:00:03;94421.09;;;12.83;32.48
20009;BME280;10165;42.662;23.260;2023-04-28T10:02:36;94416.59;;;12.52;32.94
20009;BME280;10165;42.662;23.260;2023-04-28T10:05:07;94415.03;;;12.86;32.18
20009;BME280;10165;42.662;23.260;2023-04-28T10:07:36;94415.22;;;12.27;33.14
20009;BME280;10165;42.662;23.260;2023-04-28T10:10:04;94404.94;;;12.79;32.19
20009;BME280;10165;42.662;23.260;2023-04-28T10:12:32;94413.19;;;13.44;31.67
20009;BME280;10165;42.662;23.260;2023-04-28T10:14:59;94397.09;;;13.44;31.77
20009;BME280;10165;42.662;23.260;2023-04-28T10:17:25;94400.00;;;13.77;32.41
20009;BME280;10165;42.662;23.260;2023-04-28T10:19:55;94403.31;;;13.10;30.28
20009;BME280;10165;42.662;23.260;2023-04-28T10:27:38;94397.88;;;13.86;29.59
20009;BME280;10165;42.662;23.260;2023-04-28T10:35:44;94387.00;;;14.25;30.24
20009;BME280;10165;42.662;23.260;2023-04-28T10:38:13;94380.19;;;13.85;30.28
20009;BME280;10165;42.662;23.260;2023-04-28T10:40:45;94376.72;;;13.62;30.39
20009;BME280;10165;42.662;23.260;2023-04-28T10:58:42;94358.22;;;13.57;28.52
20009;BME280;10165;42.662;23.260;2023-04-28T11:03:49;94355.38;;;13.69;30.35
20009;BME280;10165;42.662;23.260;2023-04-28T11:08:49;94335.16;;;14.47;27.79
20009;BME280;10165;42.662;23.260;2023-04-28T11:11:20;94354.84;;;14.84;27.85
20009;BME280;10165;42.662;23.260;2023-04-28T11:13:47;94346.09;;;14.35;27.70
20009;BME280;10165;42.662;23.260;2023-04-28T11:16:16;94345.03;;;14.17;27.49
20009;BME280;10165;42.662;23.260;2023-04-28T11:18:56;94343.44;;;13.89;27.98
20009;BME280;10165;42.662;23.260;2023-04-28T11:21:25;94341.25;;;14.44;28.03
20009;BME280;10165;42.662;23.260;2023-04-28T11:23:54;94336.25;;;14.20;28.41
20009;BME280;10165;42.662;23.260;2023-04-28T11:26:20;94337.81;;;14.73;28.64
20009;BME280;10165;42.662;23.260;2023-04-28T11:28:49;94332.97;;;14.33;29.04
20009;BME280;10165;42.662;23.260;2023-04-28T11:31:17;94329.78;;;14.47;29.32
20009;BME280;10165;42.662;23.260;2023-04-28T11:33:56;94335.34;;;14.91;28.39
20009;BME280;10165;42.662;23.260;2023-04-28T11:38:58;94323.22;;;14.45;28.73
20009;BME280;10165;42.662;23.260;2023-04-28T11:41:25;94315.72;;;15.20;27.68
20009;BME280;10165;42.662;23.260;2023-04-28T11:43:52;94306.91;;;14.90;27.48
20009;BME280;10165;42.662;23.260;2023-04-28T11:46:21;94323.28;;;14.25;27.09
20009;BME280;10165;42.662;23.260;2023-04-28T11:48:59;94325.44;;;14.39;27.28
20009;BME280;10165;42.662;23.260;2023-04-28T11:51:29;94314.28;;;14.97;25.94
20009;BME280;10165;42.662;23.260;2023-04-28T11:53:57;94309.00;;;14.44;26.83
20009;BME280;10165;42.662;23.260;2023-04-28T11:56:25;94308.97;;;14.41;27.84
20009;BME280;10165;42.662;23.260;2023-04-28T11:59:08;94319.53;;;14.33;27.22
20009;BME280;10165;42.662;23.260;2023-04-28T12:01:48;94316.50;;;14.61;26.65
20009;BME280;10165;42.662;23.260;2023-04-28T12:04:39;94302.53;;;15.12;27.29
20009;BME280;10165;42.662;23.260;2023-04-28T12:09:38;94310.50;;;15.38;27.07
20009;BME280;10165;42.662;23.260;2023-04-28T12:12:14;94298.03;;;15.56;27.44
20009;BME280;10165;42.662;23.260;2023-04-28T12:17:30;94289.41;;;15.40;26.66
20009;BME280;10165;42.662;23.260;2023-04-28T12:20:00;94282.09;;;15.41;27.08
20009;BME280;10165;42.662;23.260;2023-04-28T12:22:27;94289.78;;;15.42;26.81
20009;BME280;10165;42.662;23.260;2023-04-28T12:25:09;94285.94;;;15.80;26.03
20009;BME280;10165;42.662;23.260;2023-04-28T12:27:37;94287.59;;;15.18;25.38
20009;BME280;10165;42.662;23.260;2023-04-28T12:30:25;94287.50;;;15.85;26.06
20009;BME280;10165;42.662;23.260;2023-04-28T12:32:51;94280.31;;;15.99;25.58
20009;BME280;10165;42.662;23.260;2023-04-28T12:35:21;94275.06;;;16.20;26.16
20009;BME280;10165;42.662;23.260;2023-04-28T12:37:48;94268.59;;;16.32;26.07
20009;BME280;10165;42.662;23.260;2023-04-28T12:40:15;94271.56;;;16.13;26.04
20009;BME280;10165;42.662;23.260;2023-04-28T12:42:41;94269.03;;;16.41;26.60
20009;BME280;10165;42.662;23.260;2023-04-28T12:45:08;94268.88;;;16.13;26.53
20009;BME280;10165;42.662;23.260;2023-04-28T12:47:36;94257.41;;;16.26;27.08
20009;BME280;10165;42.662;23.260;2023-04-28T12:50:04;94254.66;;;16.95;26.28
20009;BME280;10165;42.662;23.260;2023-04-28T12:52:31;94264.47;;;16.52;25.95
20009;BME280;10165;42.662;23.260;2023-04-28T12:55:02;94250.97;;;15.87;26.78
20009;BME280;10165;42.662;23.260;2023-04-28T12:57:28;94248.38;;;15.98;28.03
20009;BME280;10165;42.662;23.260;2023-04-28T12:59:55;94247.06;;;16.39;26.65
20009;BME280;10165;42.662;23.260;2023-04-28T13:02:22;94241.50;;;16.07;26.97
20009;BME280;10165;42.662;23.260;2023-04-28T13:04:49;94238.72;;;16.58;26.95
20009;BME280;10165;42.662;23.260;2023-04-28T13:07:17;94246.91;;;16.83;27.32
20009;BME280;10165;42.662;23.260;2023-04-28T13:09:44;94246.09;;;16.68;26.82
20009;BME280;10165;42.662;23.260;2023-04-28T13:12:13;94239.00;;;16.43;27.01
20009;BME280;10165;42.662;23.260;2023-04-28T13:14:40;94243.53;;;16.24;26.50
20009;BME280;10165;42.662;23.260;2023-04-28T13:17:07;94240.69;;;16.03;27.41
20009;BME280;10165;42.662;23.260;2023-04-28T13:19:35;94247.88;;;16.47;25.81
20009;BME280;10165;42.662;23.260;2023-04-28T13:22:02;94246.88;;;16.69;26.03
20009;BME280;10165;42.662;23.260;2023-04-28T13:24:30;94236.25;;;16.29;nan
20009;BME280;10165;42.662;23.260;2023-04-28T13:26:59;94231.78;;;16.61;26.02
20009;BME280;10165;42.662;23.260;2023-04-28T13:29:25;94240.16;;;16.42;26.36
20009;BME280;10165;42.662;23.260;2023-04-28T13:31:52;94233.63;;;16.46;26.62
20009;BME280;10165;42.662;23.260;2023-04-28T13:34:19;94237.00;;;16.29;26.87
20009;BME280;10165;42.662;23.260;2023-04-28T13:36:46;94226.41;;;16.64;25.86
20009;BME280;10165;42.662;23.260;2023-04-28T13:39:16;94240.50;;;16.37;26.31
20009;BME280;10165;42.662;23.260;2023-04-28T13:41:45;94238.63;;;16.44;26.23